Time;durP1;ratioP1;P1;durP2;ratioP2;P2;SDS_P1;SDS_P2;PMS_P1;PMS_P2;Temp;Humidity;BMP_temperature;BMP_pressure;BME280_temperature;BME280_humidity;BME280_pressure;Samples;Min_cycle;Max_cycle;Signal;HPM_P1;HPM_P2
2023/08/24 00:00:15;;;;;;;0.00;0.00;;;;;;;;;;5037068;28;20395;-79
2023/08/24 00:02:41;;;;;;;0.00;0.00;;;;;;;;;;5076909;28;20377;-79
2023/08/24 00:05:08;;;;;;;0.00;0.00;;;;;;;;;;5040862;28;20251;-79
2023/08/24 00:07:34;;;;;;;0.00;0.00;;;;;;;;;;5077984;28;20283;-79
2023/08/24 00:10:00;;;;;;;0.00;0.00;;;;;;;;;;5045995;28;20240;-78
2023/08/24 00:12:27;;;;;;;0.00;0.00;;;;;;;;;;5067852;28;20266;-78
2023/08/24 00:14:55;;;;;;;0.10;0.10;;;;;;;;;;5046145;28;20235;-79
2023/08/24 00:17:22;;;;;;;0.10;0.10;;;;;;;;;;5066690;28;20318;-79
2023/08/24 00:19:49;;;;;;;0.00;0.00;;;;;;;;;;5046045;28;20380;-79
2023/08/24 00:22:16;;;;;;;0.00;0.00;;;;;;;;;;5067663;28;20474;-79
2023/08/24 00:24:42;;;;;;;0.08;0.08;;;;;;;;;;5045489;28;20300;-79
2023/08/24 00:27:08;;;;;;;0.00;0.00;;;;;;;;;;5067531;28;20269;-80
2023/08/24 00:29:35;;;;;;;0.00;0.00;;;;;;;;;;5045638;28;20240;-79
2023/08/24 00:32:03;;;;;;;0.00;0.00;;;;;;;;;;5065790;28;20249;-79
2023/08/24 00:34:29;;;;;;;0.00;0.00;;;;;;;;;;5046742;28;20218;-77
2023/08/24 00:36:56;;;;;;;0.10;0.10;;;;;;;;;;5063973;28;20289;-78
2023/08/24 00:39:22;;;;;;;0.10;0.10;;;;;;;;;;5048343;28;20272;-78
2023/08/24 00:41:49;;;;;;;0.08;0.08;;;;;;;;;;5062141;28;20258;-78
2023/08/24 00:44:16;;;;;;;0.00;0.00;;;;;;;;;;5050314;28;20227;-78
2023/08/24 00:46:43;;;;;;;0.10;0.10;;;;;;;;;;5060428;28;20239;-78
2023/08/24 00:49:11;;;;;;;0.00;0.00;;;;;;;;;;5051320;28;20222;-78
2023/08/24 00:51:38;;;;;;;0.10;0.10;;;;;;;;;;5058857;28;20317;-78
2023/08/24 00:54:05;;;;;;;0.00;0.00;;;;;;;;;;5052467;28;20287;-78
2023/08/24 00:56:32;;;;;;;0.05;0.05;;;;;;;;;;5057347;28;20262;-77
2023/08/24 00:58:58;;;;;;;0.00;0.00;;;;;;;;;;5054731;28;20211;-78
2023/08/24 01:01:25;;;;;;;0.00;0.00;;;;;;;;;;5055437;28;20788;-78
2023/08/24 01:03:51;;;;;;;0.03;0.03;;;;;;;;;;5055913;28;20244;-78
2023/08/24 01:06:19;;;;;;;0.00;0.00;;;;;;;;;;5053436;28;20254;-79
2023/08/24 01:08:46;;;;;;;0.00;0.00;;;;;;;;;;5057866;28;20274;-79
2023/08/24 01:11:17;;;;;;;0.10;0.10;;;;;;;;;;5051904;28;20239;-78
2023/08/24 01:13:49;;;;;;;0.10;0.10;;;;;;;;;;5058324;28;20219;-78
2023/08/24 01:16:19;;;;;;;0.00;0.00;;;;;;;;;;5052727;28;20276;-78
2023/08/24 01:18:46;;;;;;;0.00;0.00;;;;;;;;;;5057727;28;20235;-78
2023/08/24 01:21:14;;;;;;;0.00;0.00;;;;;;;;;;5051609;28;20461;-79
2023/08/24 01:23:45;;;;;;;0.00;0.00;;;;;;;;;;5058233;28;20249;-79
2023/08/24 01:26:14;;;;;;;0.00;0.00;;;;;;;;;;5051465;28;20266;-79
2023/08/24 01:28:42;;;;;;;0.00;0.00;;;;;;;;;;5058415;28;20434;-78
2023/08/24 01:31:09;;;;;;;0.00;0.00;;;;;;;;;;5050596;28;20261;-78
2023/08/24 01:33:35;;;;;;;0.00;0.00;;;;;;;;;;5060025;28;20212;-78
2023/08/24 01:36:01;;;;;;;0.10;0.10;;;;;;;;;;5048665;28;20393;-78
2023/08/24 01:38:28;;;;;;;0.00;0.00;;;;;;;;;;5061689;28;20239;-79
2023/08/24 01:40:58;;;;;;;0.10;0.10;;;;;;;;;;5046414;28;20288;-78
2023/08/24 01:43:27;;;;;;;0.00;0.00;;;;;;;;;;5062684;28;20212;-78
2023/08/24 01:45:55;;;;;;;0.10;0.10;;;;;;;;;;5046308;28;20301;-77
2023/08/24 01:48:22;;;;;;;0.10;0.10;;;;;;;;;;5063410;28;20268;-78
2023/08/24 01:50:49;;;;;;;0.10;0.10;;;;;;;;;;5044761;28;20302;-78
2023/08/24 01:53:15;;;;;;;0.00;0.00;;;;;;;;;;5065192;28;20254;-78
2023/08/24 01:55:42;;;;;;;0.00;0.00;;;;;;;;;;5043193;28;20239;-78
2023/08/24 01:58:09;;;;;;;0.10;0.10;;;;;;;;;;5067006;28;20193;-78
2023/08/24 02:00:37;;;;;;;0.00;0.00;;;;;;;;;;5041316;28;20242;-78
2023/08/24 02:03:03;;;;;;;0.10;0.10;;;;;;;;;;5068594;28;20196;-78
2023/08/24 02:05:30;;;;;;;0.10;0.10;;;;;;;;;;5039627;28;20281;-77
2023/08/24 02:07:57;;;;;;;0.00;0.00;;;;;;;;;;5069713;28;20215;-76
2023/08/24 02:10:23;;;;;;;0.10;0.10;;;;;;;;;;5037776;28;20226;-77
2023/08/24 02:12:50;;;;;;;0.10;0.10;;;;;;;;;;5071720;28;20279;-78
2023/08/24 02:15:16;;;;;;;1.38;0.85;;;;;;;;;;5035962;28;20452;-77
2023/08/24 02:17:44;;;;;;;0.00;0.00;;;;;;;;;;5073396;28;20263;-78
2023/08/24 02:20:11;;;;;;;0.08;0.08;;;;;;;;;;5034276;28;20213;-78
2023/08/24 02:22:37;;;;;;;0.00;0.00;;;;;;;;;;5074958;28;20565;-78
2023/08/24 02:25:04;;;;;;;0.00;0.00;;;;;;;;;;5043656;28;20270;-78
2023/08/24 02:27:31;;;;;;;0.10;0.10;;;;;;;;;;5065588;28;20491;-78
2023/08/24 02:29:57;;;;;;;0.00;0.00;;;;;;;;;;5043736;28;20235;-78
2023/08/24 02:32:24;;;;;;;0.00;0.00;;;;;;;;;;5065504;28;20258;-78
2023/08/24 02:34:51;;;;;;;0.10;0.10;;;;;;;;;;5043601;28;20261;-77
2023/08/24 02:37:18;;;;;;;0.03;0.03;;;;;;;;;;5065435;28;20450;-77
2023/08/24 02:39:44;;;;;;;0.10;0.10;;;;;;;;;;5044890;28;20441;-79
2023/08/24 02:42:11;;;;;;;0.00;0.00;;;;;;;;;;5069521;28;20240;-79
2023/08/24 02:44:37;;;;;;;0.10;0.10;;;;;;;;;;5047618;28;20226;-79
2023/08/24 02:47:03;;;;;;;0.10;0.10;;;;;;;;;;5068453;28;20267;-79
2023/08/24 02:49:30;;;;;;;0.00;0.00;;;;;;;;;;5048195;28;20275;-78
2023/08/24 02:51:57;;;;;;;0.10;0.10;;;;;;;;;;5066356;28;20247;-77
2023/08/24 02:54:24;;;;;;;0.10;0.10;;;;;;;;;;5049816;28;20432;-78
2023/08/24 02:56:50;;;;;;;0.08;0.08;;;;;;;;;;5064432;28;20248;-78
2023/08/24 02:59:17;;;;;;;0.00;0.00;;;;;;;;;;5051914;28;20215;-78
2023/08/24 03:01:43;;;;;;;0.00;0.00;;;;;;;;;;5062795;28;20320;-79
2023/08/24 03:04:09;;;;;;;0.05;0.05;;;;;;;;;;5053336;28;20265;-78
2023/08/24 03:06:36;;;;;;;0.00;0.00;;;;;;;;;;5060758;28;20305;-79
2023/08/24 03:09:04;;;;;;;0.00;0.00;;;;;;;;;;5055131;28;20225;-79
2023/08/24 03:11:30;;;;;;;0.00;0.00;;;;;;;;;;5059055;28;20244;-80
2023/08/24 03:13:57;;;;;;;0.10;0.10;;;;;;;;;;5056849;28;20279;-79
2023/08/24 03:16:23;;;;;;;0.00;0.00;;;;;;;;;;5057143;28;20263;-80
2023/08/24 03:18:49;;;;;;;0.00;0.00;;;;;;;;;;5058577;28;20273;-79
2023/08/24 03:21:16;;;;;;;0.00;0.00;;;;;;;;;;5055245;28;20319;-80
2023/08/24 03:23:42;;;;;;;0.20;0.20;;;;;;;;;;5060210;28;20233;-79
2023/08/24 03:26:10;;;;;;;0.10;0.10;;;;;;;;;;5053015;28;20309;-79
2023/08/24 03:28:36;;;;;;;0.10;0.10;;;;;;;;;;5062034;28;20200;-79
2023/08/24 03:31:03;;;;;;;0.00;0.00;;;;;;;;;;5051374;28;20270;-79
2023/08/24 03:33:30;;;;;;;0.10;0.10;;;;;;;;;;5064020;28;20244;-79
2023/08/24 03:35:56;;;;;;;0.00;0.00;;;;;;;;;;5049799;28;20257;-79
2023/08/24 03:38:23;;;;;;;0.00;0.00;;;;;;;;;;5065491;28;20427;-77
2023/08/24 03:40:49;;;;;;;0.10;0.10;;;;;;;;;;5047600;28;20287;-77
2023/08/24 03:43:17;;;;;;;0.10;0.10;;;;;;;;;;5067221;28;20208;-77
2023/08/24 03:45:44;;;;;;;0.00;0.00;;;;;;;;;;5045884;28;20262;-77
2023/08/24 03:48:10;;;;;;;0.00;0.00;;;;;;;;;;5068387;28;20271;-79
2023/08/24 03:50:36;;;;;;;0.10;0.10;;;;;;;;;;5043928;28;20267;-78
2023/08/24 03:53:04;;;;;;;0.08;0.08;;;;;;;;;;5070470;28;20239;-78
2023/08/24 03:55:32;;;;;;;0.00;0.00;;;;;;;;;;5041703;28;20250;-78
2023/08/24 03:57:59;;;;;;;0.10;0.10;;;;;;;;;;5071911;28;20398;-78
2023/08/24 04:00:28;;;;;;;0.08;0.08;;;;;;;;;;5041018;28;20206;-78
2023/08/24 04:02:54;;;;;;;0.20;0.20;;;;;;;;;;5072545;28;20202;-79
2023/08/24 04:05:20;;;;;;;0.00;0.00;;;;;;;;;;5036690;28;20297;-78
2023/08/24 04:07:47;;;;;;;0.08;0.08;;;;;;;;;;5077336;28;20233;-78
2023/08/24 04:10:13;;;;;;;0.10;0.10;;;;;;;;;;5037402;28;20212;-78
2023/08/24 04:12:40;;;;;;;0.10;0.10;;;;;;;;;;5076646;28;20264;-78
2023/08/24 04:15:06;;;;;;;0.05;0.05;;;;;;;;;;5046125;28;20210;-77
2023/08/24 04:17:34;;;;;;;0.10;0.10;;;;;;;;;;5054397;28;20436;-78
2023/08/24 04:20:00;;;;;;;0.10;0.10;;;;;;;;;;5065964;28;20232;-78
2023/08/24 04:22:27;;;;;;;0.10;0.10;;;;;;;;;;5071112;28;20311;-78
2023/08/24 04:24:53;;;;;;;0.08;0.08;;;;;;;;;;5065389;28;20236;-78
2023/08/24 04:27:20;;;;;;;0.00;0.00;;;;;;;;;;5070859;28;20303;-78
2023/08/24 04:29:46;;;;;;;0.10;0.10;;;;;;;;;;5065837;28;20205;-78
2023/08/24 04:32:12;;;;;;;0.00;0.00;;;;;;;;;;5070847;28;20323;-78
2023/08/24 04:34:40;;;;;;;0.10;0.10;;;;;;;;;;5065650;28;20252;-78
2023/08/24 04:37:07;;;;;;;0.03;0.03;;;;;;;;;;5070520;28;20240;-78
2023/08/24 04:39:33;;;;;;;0.00;0.00;;;;;;;;;;5065526;28;20208;-78
2023/08/24 04:42:00;;;;;;;0.08;0.08;;;;;;;;;;5069518;28;20238;-77
2023/08/24 04:44:26;;;;;;;0.00;0.00;;;;;;;;;;5066451;28;20252;-78
2023/08/24 04:46:52;;;;;;;0.08;0.08;;;;;;;;;;5068617;28;20258;-78
2023/08/24 04:49:19;;;;;;;0.08;0.08;;;;;;;;;;5067339;28;20237;-78
2023/08/24 04:51:46;;;;;;;0.10;0.10;;;;;;;;;;5067489;28;20251;-78
2023/08/24 04:54:13;;;;;;;0.10;0.10;;;;;;;;;;5067599;28;20254;-78
2023/08/24 04:56:39;;;;;;;0.10;0.10;;;;;;;;;;5066516;28;20278;-78
2023/08/24 04:59:07;;;;;;;0.05;0.05;;;;;;;;;;5068790;28;20282;-78
2023/08/24 05:01:34;;;;;;;0.10;0.10;;;;;;;;;;5065688;28;20318;-78
2023/08/24 05:04:00;;;;;;;0.10;0.10;;;;;;;;;;5068489;28;20205;-78
2023/08/24 05:06:26;;;;;;;0.05;0.05;;;;;;;;;;5064750;28;20271;-78
2023/08/24 05:08:55;;;;;;;0.00;0.00;;;;;;;;;;5070155;28;20398;-78
2023/08/24 05:11:23;;;;;;;0.00;0.00;;;;;;;;;;5064154;28;20249;-78
2023/08/24 05:13:50;;;;;;;0.10;0.10;;;;;;;;;;5070269;28;20217;-78
2023/08/24 05:16:16;;;;;;;0.05;0.05;;;;;;;;;;5063315;28;20250;-78
2023/08/24 05:18:43;;;;;;;0.10;0.10;;;;;;;;;;5071437;28;20242;-78
2023/08/24 05:21:09;;;;;;;0.00;0.00;;;;;;;;;;5062462;28;20241;-78
2023/08/24 05:23:36;;;;;;;0.00;0.00;;;;;;;;;;5072113;28;20311;-79
2023/08/24 05:26:04;;;;;;;0.10;0.10;;;;;;;;;;5061299;28;20262;-78
2023/08/24 05:28:31;;;;;;;0.00;0.00;;;;;;;;;;5072808;28;20211;-79
2023/08/24 05:30:58;;;;;;;0.10;0.10;;;;;;;;;;5060293;28;20242;-77
2023/08/24 05:33:25;;;;;;;0.03;0.03;;;;;;;;;;5073099;28;20238;-78
2023/08/24 05:35:51;;;;;;;0.05;0.05;;;;;;;;;;5059783;28;20326;-78
2023/08/24 05:38:18;;;;;;;0.08;0.08;;;;;;;;;;5074187;28;20459;-78
2023/08/24 05:40:47;;;;;;;0.10;0.10;;;;;;;;;;5058815;28;20244;-77
2023/08/24 05:43:15;;;;;;;0.00;0.00;;;;;;;;;;5074393;28;20238;-78
2023/08/24 05:45:44;;;;;;;0.10;0.10;;;;;;;;;;5057920;28;20308;-78
2023/08/24 05:48:10;;;;;;;0.03;0.03;;;;;;;;;;5074991;28;20195;-78
2023/08/24 05:50:37;;;;;;;0.00;0.00;;;;;;;;;;5057613;28;20241;-77
2023/08/24 05:53:04;;;;;;;0.10;0.10;;;;;;;;;;5075545;28;20242;-77
2023/08/24 05:55:30;;;;;;;0.10;0.10;;;;;;;;;;5056293;28;20323;-78
2023/08/24 05:57:56;;;;;;;0.10;0.10;;;;;;;;;;5076480;28;20200;-77
2023/08/24 06:00:24;;;;;;;0.03;0.03;;;;;;;;;;5055366;28;20207;-78
2023/08/24 06:02:50;;;;;;;0.05;0.05;;;;;;;;;;5077663;28;20226;-78
2023/08/24 06:05:18;;;;;;;0.00;0.00;;;;;;;;;;5054658;28;20288;-77
2023/08/24 06:07:45;;;;;;;0.00;0.00;;;;;;;;;;5078272;28;20193;-78
2023/08/24 06:10:11;;;;;;;0.10;0.10;;;;;;;;;;5053675;28;20212;-77
2023/08/24 06:12:38;;;;;;;0.00;0.00;;;;;;;;;;5078996;28;20387;-78
2023/08/24 06:15:05;;;;;;;0.10;0.10;;;;;;;;;;5062785;28;20417;-77
2023/08/24 06:17:32;;;;;;;0.00;0.00;;;;;;;;;;5069009;28;20442;-77
2023/08/24 06:19:59;;;;;;;0.10;0.10;;;;;;;;;;5063881;28;20208;-78
2023/08/24 06:22:25;;;;;;;0.10;0.10;;;;;;;;;;5068774;28;20307;-77
2023/08/24 06:24:53;;;;;;;0.08;0.08;;;;;;;;;;5063712;28;20381;-78
2023/08/24 06:27:19;;;;;;;0.00;0.00;;;;;;;;;;5068864;28;20244;-76
2023/08/24 06:29:46;;;;;;;0.10;0.10;;;;;;;;;;5063480;28;20282;-77
2023/08/24 06:32:12;;;;;;;0.00;0.00;;;;;;;;;;5068805;28;20264;-78
2023/08/24 06:34:40;;;;;;;0.00;0.00;;;;;;;;;;5063463;28;20212;-77
2023/08/24 06:37:06;;;;;;;0.10;0.10;;;;;;;;;;5068461;28;20499;-77
2023/08/24 06:39:33;;;;;;;0.00;0.00;;;;;;;;;;5063580;28;20211;-78
2023/08/24 06:41:59;;;;;;;0.10;0.10;;;;;;;;;;5067450;28;20257;-75
2023/08/24 06:44:25;;;;;;;0.10;0.10;;;;;;;;;;5064467;28;20257;-75
2023/08/24 06:46:52;;;;;;;0.10;0.10;;;;;;;;;;5066373;28;20239;-75
2023/08/24 06:49:19;;;;;;;0.08;0.08;;;;;;;;;;5065234;28;20242;-75
2023/08/24 06:51:46;;;;;;;0.03;0.03;;;;;;;;;;5065845;28;20624;-79
2023/08/24 06:54:14;;;;;;;0.03;0.03;;;;;;;;;;5066063;28;20543;-74
2023/08/24 06:56:40;;;;;;;0.10;0.10;;;;;;;;;;5065026;28;20265;-74
2023/08/24 06:59:07;;;;;;;0.00;0.00;;;;;;;;;;5066864;28;20207;-75
2023/08/24 07:01:33;;;;;;;0.00;0.00;;;;;;;;;;5063804;28;20265;-75
2023/08/24 07:03:59;;;;;;;0.10;0.10;;;;;;;;;;5067986;28;20274;-75
2023/08/24 07:06:26;;;;;;;0.10;0.10;;;;;;;;;;5063151;28;20261;-75
2023/08/24 07:08:54;;;;;;;0.00;0.00;;;;;;;;;;5068830;28;20238;-75
2023/08/24 07:11:20;;;;;;;0.03;0.03;;;;;;;;;;5062268;28;20243;-75
2023/08/24 07:13:48;;;;;;;0.08;0.08;;;;;;;;;;5069162;28;20271;-76
2023/08/24 07:16:14;;;;;;;0.03;0.03;;;;;;;;;;5061379;28;20265;-76
2023/08/24 07:18:41;;;;;;;0.00;0.00;;;;;;;;;;5070112;28;20242;-76
2023/08/24 07:21:07;;;;;;;0.00;0.00;;;;;;;;;;5060631;28;20259;-75
2023/08/24 07:23:33;;;;;;;0.10;0.10;;;;;;;;;;5070858;28;20302;-76
2023/08/24 07:26:01;;;;;;;0.10;0.10;;;;;;;;;;5060933;28;20358;-75
2023/08/24 07:28:28;;;;;;;0.10;0.10;;;;;;;;;;5075636;28;20398;-75
2023/08/24 07:30:55;;;;;;;0.00;0.00;;;;;;;;;;5062726;28;20285;-75
2023/08/24 07:33:22;;;;;;;0.10;0.10;;;;;;;;;;5076182;28;20208;-75
2023/08/24 07:35:48;;;;;;;0.00;0.00;;;;;;;;;;5061743;28;20239;-75
2023/08/24 07:38:14;;;;;;;0.00;0.00;;;;;;;;;;5076954;28;20236;-75
2023/08/24 07:40:41;;;;;;;0.00;0.00;;;;;;;;;;5060829;28;20255;-75
2023/08/24 07:43:08;;;;;;;0.00;0.00;;;;;;;;;;5077546;28;20575;-75
2023/08/24 07:45:34;;;;;;;0.00;0.00;;;;;;;;;;5059763;28;20249;-75
2023/08/24 07:48:01;;;;;;;0.00;0.00;;;;;;;;;;5078416;28;20219;-75
2023/08/24 07:50:27;;;;;;;0.03;0.03;;;;;;;;;;5058961;28;20258;-75
2023/08/24 07:52:53;;;;;;;0.00;0.00;;;;;;;;;;5079566;28;20387;-75
2023/08/24 07:55:20;;;;;;;0.00;0.00;;;;;;;;;;5057628;28;20402;-76
2023/08/24 07:57:48;;;;;;;0.00;0.00;;;;;;;;;;5080387;28;20496;-75
2023/08/24 08:00:19;;;;;;;0.00;0.00;;;;;;;;;;5056603;28;20263;-75
2023/08/24 08:02:46;;;;;;;0.00;0.00;;;;;;;;;;5080501;28;20456;-75
2023/08/24 08:05:12;;;;;;;0.00;0.00;;;;;;;;;;5056473;28;20204;-75
2023/08/24 08:07:39;;;;;;;0.00;0.00;;;;;;;;;;5080842;28;20200;-75
2023/08/24 08:10:06;;;;;;;0.00;0.00;;;;;;;;;;5066062;28;20279;-75
2023/08/24 08:12:32;;;;;;;0.00;0.00;;;;;;;;;;5071253;28;20563;-75
2023/08/24 08:14:59;;;;;;;0.05;0.05;;;;;;;;;;5066124;28;20227;-75
2023/08/24 08:17:27;;;;;;;0.00;0.00;;;;;;;;;;5071201;28;20239;-75
2023/08/24 08:19:55;;;;;;;0.00;0.00;;;;;;;;;;5066068;28;20211;-76
2023/08/24 08:22:21;;;;;;;0.00;0.00;;;;;;;;;;5071111;28;20255;-75
2023/08/24 08:24:49;;;;;;;0.10;0.10;;;;;;;;;;5066010;28;20271;-75
2023/08/24 08:27:16;;;;;;;0.00;0.00;;;;;;;;;;5070882;28;20251;-75
2023/08/24 08:29:44;;;;;;;0.00;0.00;;;;;;;;;;5065717;28;20235;-75
2023/08/24 08:32:12;;;;;;;0.00;0.00;;;;;;;;;;5070799;28;20569;-75
2023/08/24 08:34:39;;;;;;;0.10;0.10;;;;;;;;;;5065739;28;20204;-75
2023/08/24 08:37:06;;;;;;;0.00;0.00;;;;;;;;;;5069472;28;20239;-76
2023/08/24 08:39:33;;;;;;;0.00;0.00;;;;;;;;;;5065588;28;20414;-75
2023/08/24 08:41:59;;;;;;;0.00;0.00;;;;;;;;;;5069454;28;20298;-75
2023/08/24 08:44:27;;;;;;;0.00;0.00;;;;;;;;;;5066613;28;20399;-76
2023/08/24 08:46:54;;;;;;;0.03;0.03;;;;;;;;;;5068876;28;20462;-75
2023/08/24 08:49:20;;;;;;;0.00;0.00;;;;;;;;;;5066853;28;20220;-76
2023/08/24 08:51:48;;;;;;;0.10;0.10;;;;;;;;;;5067447;28;20239;-76
2023/08/24 08:54:14;;;;;;;0.00;0.00;;;;;;;;;;5067562;28;20231;-75
2023/08/24 08:56:41;;;;;;;0.00;0.00;;;;;;;;;;5066953;28;20480;-75
2023/08/24 08:59:09;;;;;;;0.00;0.00;;;;;;;;;;5068383;28;20396;-75
2023/08/24 09:01:35;;;;;;;0.00;0.00;;;;;;;;;;5065999;28;20488;-75
2023/08/24 09:04:02;;;;;;;0.10;0.10;;;;;;;;;;5068841;28;20224;-75
2023/08/24 09:06:29;;;;;;;0.00;0.00;;;;;;;;;;5065085;28;20429;-75
2023/08/24 09:08:57;;;;;;;0.00;0.00;;;;;;;;;;5070005;28;20457;-75
2023/08/24 09:11:23;;;;;;;0.00;0.00;;;;;;;;;;5064481;28;20235;-73
2023/08/24 09:13:50;;;;;;;0.43;0.43;;;;;;;;;;5070276;28;20204;-74
2023/08/24 09:16:17;;;;;;;0.00;0.00;;;;;;;;;;5063415;28;20243;-74
2023/08/24 09:18:44;;;;;;;0.10;0.10;;;;;;;;;;5071410;28;20261;-74
2023/08/24 09:21:11;;;;;;;0.00;0.00;;;;;;;;;;5062517;28;20262;-75
2023/08/24 09:23:38;;;;;;;0.00;0.00;;;;;;;;;;5071748;28;20287;-74
2023/08/24 09:26:06;;;;;;;0.10;0.10;;;;;;;;;;5061569;28;20235;-75
2023/08/24 09:28:33;;;;;;;0.00;0.00;;;;;;;;;;5072337;28;20208;-74
2023/08/24 09:31:01;;;;;;;0.00;0.00;;;;;;;;;;5060824;28;20302;-74
2023/08/24 09:33:27;;;;;;;0.00;0.00;;;;;;;;;;5073093;28;20579;-74
2023/08/24 09:35:56;;;;;;;4.85;4.55;;;;;;;;;;5060147;28;20255;-75
2023/08/24 09:38:23;;;;;;;0.00;0.00;;;;;;;;;;5073657;28;20235;-74
2023/08/24 09:40:52;;;;;;;0.00;0.00;;;;;;;;;;5059367;28;20350;-75
2023/08/24 09:43:20;;;;;;;0.00;0.00;;;;;;;;;;5073822;28;20204;-74
2023/08/24 09:45:50;;;;;;;0.00;0.00;;;;;;;;;;5058939;28;20244;-75
2023/08/24 09:48:16;;;;;;;0.00;0.00;;;;;;;;;;5074043;28;20204;-74
2023/08/24 09:50:43;;;;;;;0.00;0.00;;;;;;;;;;5058387;28;20239;-74
2023/08/24 09:53:11;;;;;;;0.00;0.00;;;;;;;;;;5074688;28;20246;-74
2023/08/24 09:55:40;;;;;;;0.00;0.00;;;;;;;;;;5057737;28;20239;-74
2023/08/24 09:58:07;;;;;;;0.00;0.00;;;;;;;;;;5074985;28;20274;-74
2023/08/24 10:00:35;;;;;;;0.00;0.00;;;;;;;;;;5056682;28;20250;-75
2023/08/24 10:03:03;;;;;;;0.00;0.00;;;;;;;;;;5076027;28;20441;-74
2023/08/24 10:05:31;;;;;;;0.00;0.00;;;;;;;;;;5056630;28;20428;-74
2023/08/24 10:07:59;;;;;;;0.00;0.00;;;;;;;;;;5076297;28;20216;-73
2023/08/24 10:10:27;;;;;;;0.00;0.00;;;;;;;;;;5055962;28;20211;-73
2023/08/24 10:12:57;;;;;;;0.00;0.00;;;;;;;;;;5076632;28;20204;-73
2023/08/24 10:15:24;;;;;;;0.00;0.00;;;;;;;;;;5055757;28;20207;-74
2023/08/24 10:17:52;;;;;;;0.00;0.00;;;;;;;;;;5076936;28;20264;-75
2023/08/24 10:20:20;;;;;;;0.00;0.00;;;;;;;;;;5054807;28;20208;-75
2023/08/24 10:22:47;;;;;;;0.10;0.10;;;;;;;;;;5077729;28;20278;-74
2023/08/24 10:25:13;;;;;;;0.00;0.00;;;;;;;;;;5054202;28;20246;-74
2023/08/24 10:27:43;;;;;;;0.00;0.00;;;;;;;;;;5078091;28;20279;-74
2023/08/24 10:30:10;;;;;;;0.00;0.00;;;;;;;;;;5055764;28;20238;-74
2023/08/24 10:32:37;;;;;;;0.00;0.00;;;;;;;;;;5078514;28;20216;-75
2023/08/24 10:35:05;;;;;;;0.00;0.00;;;;;;;;;;5063678;28;20416;-74
2023/08/24 10:37:34;;;;;;;0.00;0.00;;;;;;;;;;5068782;28;20255;-74
2023/08/24 10:40:00;;;;;;;0.00;0.00;;;;;;;;;;5063446;28;20203;-74
2023/08/24 10:42:27;;;;;;;0.00;0.00;;;;;;;;;;5068752;28;20302;-75
2023/08/24 10:44:54;;;;;;;0.00;0.00;;;;;;;;;;5063440;28;20213;-75
2023/08/24 10:47:21;;;;;;;0.00;0.00;;;;;;;;;;5068584;28;20412;-75
2023/08/24 10:49:59;;;;;;;0.00;0.00;;;;;;;;;;5063602;28;20227;-75
2023/08/24 10:52:30;;;;;;;0.00;0.00;;;;;;;;;;5068629;28;20239;-75
2023/08/24 10:54:57;;;;;;;0.00;0.00;;;;;;;;;;5063366;28;20216;-73
2023/08/24 10:57:24;;;;;;;0.00;0.00;;;;;;;;;;5068572;28;20258;-73
2023/08/24 11:00:00;;;;;;;0.00;0.00;;;;;;;;;;5063522;28;20236;-74
2023/08/24 11:02:27;;;;;;;0.00;0.00;;;;;;;;;;5072607;28;20318;-74
2023/08/24 11:05:15;;;;;;;0.00;0.00;;;;;;;;;;5067414;28;20204;-74
2023/08/24 11:07:50;;;;;;;0.00;0.00;;;;;;;;;;5067009;28;20395;-74
2023/08/24 11:10:16;;;;;;;0.00;0.00;;;;;;;;;;5058098;28;20219;-74
2023/08/24 11:13:02;;;;;;;0.00;0.00;;;;;;;;;;5081616;28;20225;-74
2023/08/24 11:15:31;;;;;;;0.00;0.00;;;;;;;;;;5059759;28;20464;-74
2023/08/24 11:18:11;;;;;;;0.10;0.10;;;;;;;;;;5079182;28;20189;-74
2023/08/24 11:20:38;;;;;;;0.00;0.00;;;;;;;;;;5060665;28;20285;-73
2023/08/24 11:23:06;;;;;;;0.00;0.00;;;;;;;;;;5078268;28;20231;-74
2023/08/24 11:25:36;;;;;;;0.00;0.00;;;;;;;;;;5060162;28;20300;-74
2023/08/24 11:28:03;;;;;;;0.00;0.00;;;;;;;;;;5078684;28;20270;-74
2023/08/24 11:30:30;;;;;;;0.00;0.00;;;;;;;;;;5059490;28;20613;-74
2023/08/24 11:32:56;;;;;;;0.00;0.00;;;;;;;;;;5079188;28;20193;-74
2023/08/24 11:35:23;;;;;;;0.00;0.00;;;;;;;;;;5058508;28;20271;-74
2023/08/24 11:37:52;;;;;;;0.00;0.00;;;;;;;;;;5080004;28;20192;-74
2023/08/24 11:40:20;;;;;;;0.00;0.00;;;;;;;;;;5057749;28;20401;-73
2023/08/24 11:42:46;;;;;;;0.00;0.00;;;;;;;;;;5080604;28;20259;-73
2023/08/24 11:45:14;;;;;;;0.00;0.00;;;;;;;;;;5056877;28;20204;-74
2023/08/24 11:47:40;;;;;;;0.00;0.00;;;;;;;;;;5081185;28;20212;-74
2023/08/24 11:50:08;;;;;;;0.03;0.03;;;;;;;;;;5065077;28;20275;-74
2023/08/24 11:52:39;;;;;;;0.00;0.00;;;;;;;;;;5081788;28;20440;-73
2023/08/24 11:55:08;;;;;;;0.00;0.00;;;;;;;;;;5066234;28;20224;-73
2023/08/24 11:57:36;;;;;;;0.00;0.00;;;;;;;;;;5034997;28;20205;-73
2023/08/24 12:00:04;;;;;;;0.00;0.00;;;;;;;;;;5046285;28;20216;-74
2023/08/24 12:02:30;;;;;;;0.00;0.00;;;;;;;;;;5070843;28;20286;-74
2023/08/24 12:04:57;;;;;;;0.00;0.00;;;;;;;;;;5066275;28;20250;-74
2023/08/24 12:07:23;;;;;;;0.00;0.00;;;;;;;;;;5069256;28;20242;-74
2023/08/24 12:09:52;;;;;;;0.00;0.00;;;;;;;;;;5045954;28;20239;-74
2023/08/24 12:12:20;;;;;;;0.00;0.00;;;;;;;;;;5066648;28;20269;-74
2023/08/24 12:14:48;;;;;;;0.00;0.00;;;;;;;;;;5046138;28;20205;-74
2023/08/24 12:17:15;;;;;;;1.40;1.33;;;;;;;;;;5067619;28;20298;-74
2023/08/24 12:19:42;;;;;;;0.00;0.00;;;;;;;;;;5046107;28;20212;-74
2023/08/24 12:22:09;;;;;;;0.00;0.00;;;;;;;;;;5067777;28;20314;-74
2023/08/24 12:24:35;;;;;;;0.00;0.00;;;;;;;;;;5045738;28;20251;-74
2023/08/24 12:27:03;;;;;;;0.00;0.00;;;;;;;;;;5065968;28;20266;-74
2023/08/24 12:29:29;;;;;;;0.00;0.00;;;;;;;;;;5046914;28;20204;-74
2023/08/24 12:31:59;;;;;;;0.00;0.00;;;;;;;;;;5064379;28;20266;-74
2023/08/24 12:34:25;;;;;;;0.00;0.00;;;;;;;;;;5048236;28;20382;-74
2023/08/24 12:36:51;;;;;;;0.00;0.00;;;;;;;;;;5063155;28;20247;-74
2023/08/24 12:39:18;;;;;;;0.00;0.00;;;;;;;;;;5049572;28;20275;-75
2023/08/24 12:41:44;;;;;;;0.00;0.00;;;;;;;;;;5060937;28;20250;-74
2023/08/24 12:44:10;;;;;;;0.00;0.00;;;;;;;;;;5051403;28;20205;-75
2023/08/24 12:46:38;;;;;;;0.00;0.00;;;;;;;;;;5059256;28;20306;-74
2023/08/24 12:49:05;;;;;;;0.00;0.00;;;;;;;;;;5052827;28;20235;-74
2023/08/24 12:51:32;;;;;;;0.00;0.00;;;;;;;;;;5057742;28;20238;-75
2023/08/24 12:53:58;;;;;;;0.00;0.00;;;;;;;;;;5054542;28;20449;-76
2023/08/24 12:56:25;;;;;;;0.30;0.30;;;;;;;;;;5055701;28;20286;-76
2023/08/24 12:58:51;;;;;;;0.00;0.00;;;;;;;;;;5056667;28;20207;-76
2023/08/24 13:01:17;;;;;;;0.00;0.00;;;;;;;;;;5053434;28;20239;-76
2023/08/24 13:03:44;;;;;;;0.00;0.00;;;;;;;;;;5058743;28;20417;-76
2023/08/24 13:06:11;;;;;;;0.00;0.00;;;;;;;;;;5051715;28;20305;-76
2023/08/24 13:08:38;;;;;;;0.00;0.00;;;;;;;;;;5060040;28;20225;-76
2023/08/24 13:11:06;;;;;;;0.00;0.00;;;;;;;;;;5050222;28;20254;-77
2023/08/24 13:13:32;;;;;;;0.00;0.00;;;;;;;;;;5061407;28;20390;-76
2023/08/24 13:15:59;;;;;;;0.00;0.00;;;;;;;;;;5048495;28;20243;-75
2023/08/24 13:18:25;;;;;;;0.00;0.00;;;;;;;;;;5062944;28;20201;-75
2023/08/24 13:20:51;;;;;;;0.00;0.00;;;;;;;;;;5046159;28;20302;-75
2023/08/24 13:23:19;;;;;;;0.00;0.00;;;;;;;;;;5064268;28;20291;-75
2023/08/24 13:25:46;;;;;;;0.00;0.00;;;;;;;;;;5044630;28;20239;-75
2023/08/24 13:28:13;;;;;;;0.00;0.00;;;;;;;;;;5065947;28;20296;-78
2023/08/24 13:30:40;;;;;;;0.00;0.00;;;;;;;;;;5042798;28;20239;-75
2023/08/24 13:33:06;;;;;;;0.00;0.00;;;;;;;;;;5068065;28;20247;-75
2023/08/24 13:35:33;;;;;;;0.00;0.00;;;;;;;;;;5040768;28;20289;-75
2023/08/24 13:37:59;;;;;;;0.00;0.00;;;;;;;;;;5069497;28;20189;-74
2023/08/24 13:40:27;;;;;;;0.00;0.00;;;;;;;;;;5038882;28;20243;-74
2023/08/24 13:42:53;;;;;;;0.00;0.00;;;;;;;;;;5071291;28;20193;-75
2023/08/24 13:45:20;;;;;;;0.00;0.00;;;;;;;;;;5036945;28;20205;-75
2023/08/24 13:47:47;;;;;;;0.00;0.00;;;;;;;;;;5072813;28;20220;-75
2023/08/24 13:50:13;;;;;;;0.00;0.00;;;;;;;;;;5035343;28;20232;-75
2023/08/24 13:52:39;;;;;;;0.00;0.00;;;;;;;;;;5074817;28;20429;-76
2023/08/24 13:55:06;;;;;;;0.00;0.00;;;;;;;;;;5044183;28;20462;-75
2023/08/24 13:57:34;;;;;;;0.00;0.00;;;;;;;;;;5065928;28;20415;-76
2023/08/24 14:00:01;;;;;;;0.00;0.00;;;;;;;;;;5043895;28;20280;-75
2023/08/24 14:02:27;;;;;;;0.00;0.00;;;;;;;;;;5065858;28;20415;-75
2023/08/24 14:04:53;;;;;;;0.00;0.00;;;;;;;;;;5044172;28;20232;-76
2023/08/24 14:07:20;;;;;;;0.00;0.00;;;;;;;;;;5065819;28;20269;-76
2023/08/24 14:09:47;;;;;;;0.00;0.00;;;;;;;;;;5044209;28;20392;-75
2023/08/24 14:12:13;;;;;;;0.00;0.00;;;;;;;;;;5065782;28;20486;-75
2023/08/24 14:14:41;;;;;;;0.00;0.00;;;;;;;;;;5044066;28;20204;-75
2023/08/24 14:17:07;;;;;;;0.00;0.00;;;;;;;;;;5065434;28;20239;-74
2023/08/24 14:19:33;;;;;;;0.00;0.00;;;;;;;;;;5043954;28;20236;-74
2023/08/24 14:22:00;;;;;;;0.00;0.00;;;;;;;;;;5063393;28;20242;-75
2023/08/24 14:24:26;;;;;;;0.00;0.00;;;;;;;;;;5045509;28;20225;-74
2023/08/24 14:26:52;;;;;;;0.00;0.00;;;;;;;;;;5061426;28;20303;-74
2023/08/24 14:29:19;;;;;;;0.00;0.00;;;;;;;;;;5047299;28;20292;-75
2023/08/24 14:31:46;;;;;;;0.00;0.00;;;;;;;;;;5059398;28;20585;-74
2023/08/24 14:34:13;;;;;;;0.00;0.00;;;;;;;;;;5049437;28;20434;-74
2023/08/24 14:36:39;;;;;;;0.00;0.00;;;;;;;;;;5057041;28;20239;-74
2023/08/24 14:39:07;;;;;;;0.00;0.00;;;;;;;;;;5050850;28;20215;-74
2023/08/24 14:41:33;;;;;;;0.00;0.00;;;;;;;;;;5056113;28;20250;-74